createdAt,value
2022-10-31T00:11:50.531Z,52.53
2022-10-31T00:46:38.805Z,51.37
2022-10-31T01:42:57.021Z,46.63
2022-10-31T02:07:50.902Z,51.23
2022-10-31T02:33:48.206Z,57.40
2022-10-31T02:38:10.588Z,54.00
2022-10-31T03:13:49.054Z,61.40
2022-10-31T03:44:35.531Z,63.23
2022-10-31T04:14:36.826Z,56.00
2022-10-31T05:10:41.357Z,60.80
2022-10-31T05:40:47.112Z,73.37
2022-10-31T06:06:38.761Z,63.97
2022-10-31T06:47:21.692Z,52.40
2022-10-31T07:17:49.264Z,42.23
2022-10-31T07:48:00.375Z,36.47
2022-10-31T08:18:29.783Z,28.57
2022-10-31T08:48:50.497Z,23.50
2022-10-31T09:14:15.646Z,26.93
2022-10-31T09:39:41.799Z,31.87
2022-10-31T10:05:07.201Z,37.50
2022-10-31T10:35:01.150Z,27.27
2022-10-31T11:06:02.192Z,21.20
2022-10-31T11:35:47.876Z,21.33
2022-10-31T11:56:40.869Z,19.13
2022-10-31T13:02:42.548Z,16.50
2022-10-31T13:27:26.768Z,21.30
2022-10-31T13:52:49.034Z,23.20
2022-10-31T14:18:33.653Z,26.40
2022-10-31T14:53:48.418Z,27.03
2022-10-31T15:19:28.343Z,29.87
2022-10-31T15:39:47.254Z,33.67
2022-10-31T16:14:47.144Z,43.03
2022-10-31T16:35:27.867Z,43.40
2022-10-31T17:01:00.792Z,42.13
2022-10-31T17:30:49.252Z,42.33
2022-10-31T17:56:31.395Z,45.27
2022-10-31T18:17:08.519Z,43.90
2022-10-31T18:41:54.990Z,48.10
2022-10-31T19:07:54.905Z,50.87
2022-10-31T19:12:14.129Z,51.47
2022-10-31T19:27:34.990Z,54.47
2022-10-31T19:53:14.794Z,61.77
2022-10-31T20:38:55.138Z,63.67
2022-10-31T21:13:55.282Z,58.83
2022-10-31T21:44:28.492Z,58.53
2022-10-31T22:15:28.523Z,52.13
2022-10-31T22:50:16.844Z,41.27
2022-10-31T23:36:05.677Z,36.17
